Moerbeke, Belgium
Current Conditions -  °F | °C
As of 2:50 PM on Monday 20 Oct 2014 (Local Time) from EBAW Reporting Station
Few Clouds Few Clouds  
Wind Chill: 63°   Ceiling: Unl
Heat Index: 63°   Visibility: 6mi
Dew Point: 50°   Wind: 14mph
Humidity: 63%   Direction: 250°WSW
Pressure: 30.03"   Gusts: NA
Location:  51.17°N, 3.93°E
Report Text: EBAW 201250Z 25012KT 220V280 9999 FEW028 17/10 Q1017 NOSIG
Loading
Personal Weather Stations






























Interactive Weather Map
Tropical Storm Tracking
New forecast layout! Learn more

10-Day Weather Forecast

Advertisements
Track Severe Weather on mobile